Cidra, PR (00739)

2:17 AM AST on July 25, 2016 (GMT -0400)
Sabanera, Cidra, P.R. | | Change Station

Elev 1368 ft 18.19 °N, 66.11 °W | Updated 3 minutes ago

Partly Cloudy
Partly Cloudy
71.8 °F
Feels Like 71.8 °F
N
0.0
Wind Variable Wind from ESE

Today
High -- | Low -- °F
--% Chance of Precip.
Yesterday
High -- | Low -- °F
Precip. -- in
Pressure 29.99 in
Visibility 10.0 miles
Clouds Few 2900 ft
Dew Point 71 °F
Humidity 98%
Rainfall 0.10 in
Snow Depth Not available.
6:00 AM 7:01 PM
Waning Gibbous, 69% visible
METAR TJSJ 250556Z 00000KT 10SM FEW029 27/23 A3000 RMK AO2 SLP156 60002 T02670233 10283 20256 58015 $
Pressure 29.99 in
Visibility 10.0 miles
Clouds Few 2900 ft
Dew Point 71 °F
Humidity 98%
Rainfall 0.10 in
Snow Depth Not available.
6:00 AM 7:01 PM
Waning Gibbous, 69% visible
METAR TJSJ 250556Z 00000KT 10SM FEW029 27/23 A3000 RMK AO2 SLP156 60002 T02670233 10283 20256 58015 $

10-Day Weather Forecast

Almanac

Astronomy

Jul. 25, 2016 Rise Set
Actual Time
Civil Twilight
Nautical Twilight
Astronomical Twilight
Moon
Length of Visible Light
Length of Day
Tomorrow will be .
, % of the Moon is Illuminated

Today's Extremes

State Highs State Lows

Community

WunderPhotos

Upload Photos

1,927,276 photos uploaded!

WunderBlog® & News

Nearby

Air Quality

  Air Quality AQ Index Pollutant
Not available.

Snow Depth

Station Depth Elevation

Earthquake Activity

City Distance Mag. Time & Date
Minimum magnitude displayed is 2.5.

Coastal Water Temperatures

Place Temperature

Stations

Nearby Weather Stations

Station Location Temp. Windchill Dew Point Humidity Wind Precip. Elev Updated Type
                   

Watches & Warnings

There are currently no watches in effect.